Weather History for Windom, MN

Change the Weather History Date:

Sunday, March 10, 2013

  Actual Average Record
Temperature  
Mean Temperature 26 °F -  
Max Temperature 30 °F 37 °F 64 °F (2012)
Min Temperature 19 °F 18 °F -9 °F (1979)
Degree Days  
Heating Degree Days 40    
Moisture  
Dew Point 24 °F    
Average Humidity 95    
Maximum Humidity 100    
Minimum Humidity 86    
Precipitation  
Precipitation 0.00 in - - ()
Sea Level Pressure  
Sea Level Pressure 29.90 in    
Wind  
Wind Speed 25 mph (NNW)    
Max Wind Speed 32 mph    
Max Gust Speed 38 mph    
Visibility 6 miles    
Events Snow    
Averages and records for this station are not official NWS values.
T = Trace of Precipitation, MM = Missing Value Source: NWS Daily Summary

Daily Weather History Graph

Daily Weather History Graph

Search for Another Location

Airport:

Trip Planner

Search our weather history database for the weather conditions in past years. The results will help you decide how hot, cold, wet, or windy it might be!

Date:

Astronomy

Mar. 10, 2013 Rise Set
Actual Time 7:41 AM CDT 7:20 PM CDT
Civil Twilight 7:12 AM CDT 7:49 PM CDT
Nautical Twilight 6:39 AM CDT 8:22 PM CDT
Astronomical Twilight 6:05 AM CDT 8:56 PM CDT
Moon 6:43 AM CDT (3/10) 6:29 PM CDT (3/10)
Length of Visible Light 12h 37m
Length of Day
11h 39m
Waning Crescent, 2% of the Moon is Illuminated
Mar 10
Waning Crescent
Mar 11
New
Mar 19
First Quarter
Mar 27
Full
Apr 2
Last Quarter

Hourly Weather History & Observations

Time (CDT) Temp. Windchill Dew Point Humidity Pressure Visibility Wind Dir Wind Speed Gust Speed Precip Events Conditions
12:12 AM 30.2 °F 16.8 °F 30.2 °F 100% - 2.0 mi NNW 23.0 mph - N/A Snow Light Snow
12:33 AM 30.2 °F 15.9 °F 30.2 °F 100% - 2.5 mi NNW 26.5 mph 31.1 mph N/A Snow Light Snow
12:52 AM 30.2 °F 16.5 °F 28.4 °F 93% - 2.5 mi NNW 24.2 mph - N/A Snow Light Snow
1:12 AM 30.2 °F 16.8 °F 28.4 °F 93% - 3.0 mi NNW 23.0 mph 27.6 mph N/A   Overcast
1:33 AM 30.2 °F 18.1 °F 28.4 °F 93% - 3.0 mi NNW 18.4 mph 27.6 mph N/A   Overcast
1:52 AM 28.4 °F 15.1 °F 28.4 °F 100% - 2.5 mi NNW 20.7 mph 26.5 mph N/A Snow Light Snow
3:12 AM 28.4 °F 13.5 °F 28.4 °F 100% - 2.5 mi NNW 26.5 mph 31.1 mph N/A Snow Light Snow
3:32 AM 28.4 °F 13.5 °F 28.4 °F 100% - 4.0 mi NNW 26.5 mph - N/A   Overcast
3:52 AM 28.4 °F 13.5 °F 28.4 °F 100% - 4.0 mi NNW 26.5 mph 32.2 mph N/A   Overcast
4:13 AM 28.4 °F 14.1 °F 26.6 °F 93% - 3.0 mi NNW 24.2 mph 33.4 mph N/A   Overcast
4:32 AM 26.6 °F 11.1 °F 26.6 °F 100% - 3.0 mi NNW 26.5 mph 33.4 mph N/A   Overcast
4:53 AM 26.6 °F 11.4 °F 26.6 °F 100% - 4.0 mi NNW 25.3 mph 29.9 mph N/A   Overcast
5:13 AM 26.6 °F 11.1 °F 26.6 °F 100% - 4.0 mi NNW 26.5 mph 32.2 mph N/A   Overcast
5:32 AM 26.6 °F 10.3 °F 26.6 °F 100% - 3.0 mi NNW 29.9 mph 33.4 mph N/A   Overcast
5:53 AM 26.6 °F 11.7 °F 26.6 °F 100% - 3.0 mi NNW 24.2 mph 32.2 mph N/A   Overcast
6:13 AM 26.6 °F 12.4 °F 26.6 °F 100% - 2.5 mi NNW 21.9 mph 32.2 mph N/A   Overcast
6:32 AM 26.6 °F 10.8 °F 24.8 °F 93% - 2.0 mi NNW 27.6 mph 34.5 mph N/A   Overcast
7:32 AM 24.8 °F 9.0 °F 24.8 °F 100% - 3.0 mi NNW 25.3 mph 31.1 mph N/A   Overcast
7:52 AM 24.8 °F 9.6 °F 24.8 °F 100% - 4.0 mi NNW 23.0 mph 31.1 mph N/A   Overcast
8:13 AM 24.8 °F 9.6 °F 24.8 °F 100% - 3.0 mi NNW 23.0 mph 34.5 mph N/A   Overcast
8:32 AM 24.8 °F 8.7 °F 24.8 °F 100% - 1.8 mi NNW 26.5 mph 32.2 mph N/A   Overcast
8:52 AM 24.8 °F 7.9 °F 24.8 °F 100% - 1.2 mi NNW 29.9 mph 38.0 mph N/A   Overcast
9:12 AM 24.8 °F 8.1 °F 24.8 °F 100% - 1.8 mi NNW 28.8 mph 35.7 mph N/A   Overcast
9:32 AM 24.8 °F 8.4 °F 24.8 °F 100% - 1.8 mi NNW 27.6 mph 34.5 mph N/A   Overcast
9:52 AM 24.8 °F 7.9 °F 24.8 °F 100% - 2.0 mi NNW 29.9 mph 36.8 mph N/A   Overcast
10:12 AM 24.8 °F 8.4 °F 24.8 °F 100% - 2.0 mi NNW 27.6 mph 36.8 mph N/A   Overcast
10:33 AM 24.8 °F 8.1 °F 24.8 °F 100% - 3.0 mi NNW 28.8 mph 34.5 mph N/A   Overcast
10:52 AM 24.8 °F 7.9 °F 24.8 °F 100% - 4.0 mi NNW 29.9 mph 36.8 mph N/A   Overcast
11:12 AM 24.8 °F 7.9 °F 24.8 °F 100% - 4.0 mi NNW 29.9 mph 38.0 mph N/A   Overcast
11:33 AM 24.8 °F 9.0 °F 23.0 °F 93% - 4.0 mi NNW 25.3 mph 33.4 mph N/A   Overcast
11:52 AM 24.8 °F 9.0 °F 24.8 °F 100% - 5.0 mi NNW 25.3 mph 34.5 mph N/A   Overcast
12:12 PM 26.6 °F 11.7 °F 24.8 °F 93% 29.93 in 5.0 mi NNW 24.2 mph 31.1 mph N/A   Overcast
12:33 PM 26.6 °F 10.8 °F 24.8 °F 93% 29.91 in 5.0 mi NNW 27.6 mph 31.1 mph N/A   Overcast
12:52 PM 26.6 °F 10.0 °F 24.8 °F 93% 29.89 in 5.0 mi NNW 31.1 mph 35.7 mph N/A   Overcast
1:12 PM 24.8 °F 8.7 °F 24.8 °F 100% 29.92 in 5.0 mi NNW 26.5 mph 35.7 mph N/A   Overcast
1:33 PM 26.6 °F 12.0 °F 24.8 °F 93% 29.92 in 5.0 mi NNW 23.0 mph 33.4 mph N/A   Overcast
1:52 PM 26.6 °F 10.8 °F 24.8 °F 93% 29.91 in 5.0 mi NNW 27.6 mph 34.5 mph N/A   Overcast
2:12 PM 26.6 °F 10.8 °F 24.8 °F 93% 29.92 in 7.0 mi NNW 27.6 mph 33.4 mph N/A   Overcast
2:33 PM 26.6 °F 10.8 °F 24.8 °F 93% 29.90 in 7.0 mi NNW 27.6 mph 33.4 mph N/A   Overcast
2:52 PM 26.6 °F 10.6 °F 24.8 °F 93% 29.89 in 7.0 mi NNW 28.8 mph 34.5 mph N/A   Overcast
3:12 PM 26.6 °F 10.6 °F 24.8 °F 93% 29.88 in 7.0 mi NNW 28.8 mph 33.4 mph N/A   Overcast
3:33 PM 26.6 °F 10.0 °F 24.8 °F 93% 29.86 in 7.0 mi NNW 31.1 mph 38.0 mph N/A   Overcast
3:52 PM 26.6 °F 9.8 °F 24.8 °F 93% 29.86 in 7.0 mi NNW 32.2 mph 38.0 mph N/A   Overcast
4:12 PM 26.6 °F 10.0 °F 24.8 °F 93% 29.87 in 7.0 mi NNW 31.1 mph 35.7 mph N/A   Overcast
4:33 PM 26.6 °F 11.4 °F 24.8 °F 93% 29.88 in 10.0 mi North 25.3 mph 31.1 mph N/A   Overcast
4:52 PM 26.6 °F 11.1 °F 24.8 °F 93% 29.89 in 10.0 mi North 26.5 mph 33.4 mph N/A   Overcast
5:12 PM 26.6 °F 11.1 °F 24.8 °F 93% 29.89 in 10.0 mi North 26.5 mph 29.9 mph N/A   Overcast
5:33 PM 26.6 °F 10.0 °F 23.0 °F 86% 29.89 in 10.0 mi North 31.1 mph 36.8 mph N/A   Overcast
5:52 PM 26.6 °F 10.6 °F 23.0 °F 86% 29.89 in 10.0 mi NNW 28.8 mph 38.0 mph N/A   Overcast
6:12 PM 26.6 °F 11.7 °F 24.8 °F 93% 29.90 in 10.0 mi North 24.2 mph - N/A   Overcast
6:32 PM 26.6 °F 12.0 °F 24.8 °F 93% 29.90 in 10.0 mi North 23.0 mph 29.9 mph N/A   Overcast
6:52 PM 26.6 °F 10.8 °F 23.0 °F 86% 29.90 in 10.0 mi North 27.6 mph 32.2 mph N/A   Overcast
7:12 PM 26.6 °F 11.4 °F 23.0 °F 86% 29.90 in 10.0 mi North 25.3 mph 33.4 mph N/A   Overcast
7:32 PM 26.6 °F 11.4 °F 23.0 °F 86% 29.91 in 10.0 mi NNW 25.3 mph 29.9 mph N/A   Overcast
7:53 PM 24.8 °F 10.0 °F 21.2 °F 86% 29.92 in 10.0 mi NNW 21.9 mph 31.1 mph N/A   Overcast
8:12 PM 24.8 °F 9.6 °F 21.2 °F 86% 29.92 in 10.0 mi NNW 23.0 mph - N/A   Overcast
8:32 PM 24.8 °F 9.6 °F 21.2 °F 86% 29.92 in 10.0 mi NNW 23.0 mph 27.6 mph N/A   Overcast
8:52 PM 24.8 °F 10.0 °F 21.2 °F 86% 29.93 in 10.0 mi NNW 21.9 mph - N/A   Overcast
9:12 PM 23.0 °F 6.9 °F 21.2 °F 93% 29.92 in 10.0 mi NNW 24.2 mph - N/A   Overcast
9:32 PM 23.0 °F 6.0 °F 21.2 °F 93% 29.92 in 10.0 mi NNW 27.6 mph - N/A   Overcast
9:52 PM 23.0 °F 6.6 °F 21.2 °F 93% 29.91 in 10.0 mi NNW 25.3 mph 31.1 mph N/A   Overcast
10:13 PM 23.0 °F 7.2 °F 21.2 °F 93% 29.91 in 10.0 mi NNW 23.0 mph - N/A   Overcast
10:52 PM 21.2 °F 3.5 °F 21.2 °F 100% 29.89 in 10.0 mi NNW 27.6 mph 34.5 mph N/A   Overcast
11:13 PM 21.2 °F 3.9 °F 19.4 °F 93% 29.89 in 10.0 mi NNW 26.5 mph 32.2 mph N/A   Overcast
11:32 PM 21.2 °F 3.9 °F 19.4 °F 93% 29.88 in 10.0 mi NW 26.5 mph 31.1 mph N/A   Overcast
11:52 PM 21.2 °F 3.5 °F 19.4 °F 93% 29.88 in 10.0 mi NW 27.6 mph 34.5 mph N/A   Overcast
12:13 AM 21.2 °F 4.5 °F 19.4 °F 93% 29.88 in 10.0 mi NW 24.2 mph 32.2 mph N/A   Overcast
12:32 AM 21.2 °F 5.6 °F 19.4 °F 93% 29.88 in 10.0 mi NNW 20.7 mph 31.1 mph N/A   Overcast
12:52 AM 19.4 °F 2.1 °F 19.4 °F 100% 29.88 in 10.0 mi NNW 24.2 mph - N/A   Overcast